sensor_id;sensor_type;location;lat;lon;timestamp;P1;durP1;ratioP1;P2;durP2;ratioP2
67053;SDS011;53960;51.826;5.850;2024-01-11T00:01:47;25.53;;;9.93;;
67053;SDS011;53960;51.826;5.850;2024-01-11T00:04:13;23.10;;;9.52;;
67053;SDS011;53960;51.826;5.850;2024-01-11T00:06:42;25.87;;;10.53;;
67053;SDS011;53960;51.826;5.850;2024-01-11T00:09:08;27.63;;;9.93;;
67053;SDS011;53960;51.826;5.850;2024-01-11T00:11:33;22.47;;;9.90;;
67053;SDS011;53960;51.826;5.850;2024-01-11T00:13:59;25.17;;;10.27;;
67053;SDS011;53960;51.826;5.850;2024-01-11T00:16:24;27.70;;;11.27;;
67053;SDS011;53960;51.826;5.850;2024-01-11T00:18:49;20.80;;;9.87;;
67053;SDS011;53960;51.826;5.850;2024-01-11T00:21:14;24.60;;;10.17;;
67053;SDS011;53960;51.826;5.850;2024-01-11T00:23:40;27.20;;;10.97;;
67053;SDS011;53960;51.826;5.850;2024-01-11T00:26:05;21.23;;;9.80;;
67053;SDS011;53960;51.826;5.850;2024-01-11T00:28:30;21.77;;;9.17;;
67053;SDS011;53960;51.826;5.850;2024-01-11T00:30:56;27.87;;;10.63;;
67053;SDS011;53960;51.826;5.850;2024-01-11T00:33:21;23.67;;;10.07;;
67053;SDS011;53960;51.826;5.850;2024-01-11T00:35:47;26.65;;;9.13;;
67053;SDS011;53960;51.826;5.850;2024-01-11T00:38:12;24.13;;;9.93;;
67053;SDS011;53960;51.826;5.850;2024-01-11T00:40:37;24.40;;;9.43;;
67053;SDS011;53960;51.826;5.850;2024-01-11T00:43:03;25.30;;;10.13;;
67053;SDS011;53960;51.826;5.850;2024-01-11T00:45:28;26.27;;;10.43;;
67053;SDS011;53960;51.826;5.850;2024-01-11T00:47:53;21.90;;;9.67;;
67053;SDS011;53960;51.826;5.850;2024-01-11T00:50:19;21.70;;;9.43;;
67053;SDS011;53960;51.826;5.850;2024-01-11T00:52:44;25.47;;;9.77;;
67053;SDS011;53960;51.826;5.850;2024-01-11T00:55:09;22.73;;;9.57;;
67053;SDS011;53960;51.826;5.850;2024-01-11T00:57:34;22.13;;;9.50;;
67053;SDS011;53960;51.826;5.850;2024-01-11T01:00:00;29.13;;;10.43;;
67053;SDS011;53960;51.826;5.850;2024-01-11T01:02:25;29.77;;;10.67;;
67053;SDS011;53960;51.826;5.850;2024-01-11T01:04:50;22.73;;;9.87;;
67053;SDS011;53960;51.826;5.850;2024-01-11T01:07:16;22.90;;;10.33;;
67053;SDS011;53960;51.826;5.850;2024-01-11T01:09:41;24.40;;;9.93;;
67053;SDS011;53960;51.826;5.850;2024-01-11T01:12:07;21.93;;;9.47;;
67053;SDS011;53960;51.826;5.850;2024-01-11T01:14:32;20.93;;;8.83;;
67053;SDS011;53960;51.826;5.850;2024-01-11T01:16:57;20.33;;;9.13;;
67053;SDS011;53960;51.826;5.850;2024-01-11T01:19:23;20.37;;;8.50;;
67053;SDS011;53960;51.826;5.850;2024-01-11T01:21:48;24.48;;;9.80;;
67053;SDS011;53960;51.826;5.850;2024-01-11T01:24:13;18.07;;;8.00;;
67053;SDS011;53960;51.826;5.850;2024-01-11T01:26:38;23.13;;;9.63;;
67053;SDS011;53960;51.826;5.850;2024-01-11T01:29:04;25.03;;;8.87;;
67053;SDS011;53960;51.826;5.850;2024-01-11T01:31:30;22.75;;;10.13;;
67053;SDS011;53960;51.826;5.850;2024-01-11T01:34:02;23.42;;;9.50;;
67053;SDS011;53960;51.826;5.850;2024-01-11T01:36:27;21.30;;;8.93;;
67053;SDS011;53960;51.826;5.850;2024-01-11T01:38:52;22.37;;;8.53;;
67053;SDS011;53960;51.826;5.850;2024-01-11T01:41:18;26.87;;;9.20;;
67053;SDS011;53960;51.826;5.850;2024-01-11T01:43:43;22.20;;;9.07;;
67053;SDS011;53960;51.826;5.850;2024-01-11T01:46:08;23.50;;;9.50;;
67053;SDS011;53960;51.826;5.850;2024-01-11T01:48:34;21.97;;;8.50;;
67053;SDS011;53960;51.826;5.850;2024-01-11T01:51:00;24.85;;;8.93;;
67053;SDS011;53960;51.826;5.850;2024-01-11T01:53:27;20.63;;;8.75;;
67053;SDS011;53960;51.826;5.850;2024-01-11T01:55:53;19.70;;;8.07;;
67053;SDS011;53960;51.826;5.850;2024-01-11T01:58:19;19.33;;;8.80;;
67053;SDS011;53960;51.826;5.850;2024-01-11T02:00:45;22.33;;;8.60;;
67053;SDS011;53960;51.826;5.850;2024-01-11T02:03:12;21.25;;;8.68;;
67053;SDS011;53960;51.826;5.850;2024-01-11T02:05:40;22.00;;;8.45;;
67053;SDS011;53960;51.826;5.850;2024-01-11T02:08:06;22.70;;;8.93;;
67053;SDS011;53960;51.826;5.850;2024-01-11T02:10:33;20.45;;;9.23;;
67053;SDS011;53960;51.826;5.850;2024-01-11T02:13:00;21.63;;;8.73;;
67053;SDS011;53960;51.826;5.850;2024-01-11T02:15:26;20.57;;;9.07;;
67053;SDS011;53960;51.826;5.850;2024-01-11T02:17:51;25.33;;;9.00;;
67053;SDS011;53960;51.826;5.850;2024-01-11T02:20:16;20.40;;;8.83;;
67053;SDS011;53960;51.826;5.850;2024-01-11T02:22:42;22.80;;;8.65;;
67053;SDS011;53960;51.826;5.850;2024-01-11T02:25:12;24.23;;;8.67;;
67053;SDS011;53960;51.826;5.850;2024-01-11T02:27:47;24.73;;;8.93;;
67053;SDS011;53960;51.826;5.850;2024-01-11T02:30:13;21.63;;;7.90;;
67053;SDS011;53960;51.826;5.850;2024-01-11T02:32:39;19.25;;;8.75;;
67053;SDS011;53960;51.826;5.850;2024-01-11T02:35:05;20.53;;;8.10;;
67053;SDS011;53960;51.826;5.850;2024-01-11T02:37:30;19.98;;;8.70;;
67053;SDS011;53960;51.826;5.850;2024-01-11T02:39:56;23.53;;;8.60;;
67053;SDS011;53960;51.826;5.850;2024-01-11T02:42:21;20.33;;;7.93;;
67053;SDS011;53960;51.826;5.850;2024-01-11T02:44:47;22.80;;;9.05;;
67053;SDS011;53960;51.826;5.850;2024-01-11T02:47:12;19.93;;;8.23;;
67053;SDS011;53960;51.826;5.850;2024-01-11T02:49:37;20.07;;;8.00;;
67053;SDS011;53960;51.826;5.850;2024-01-11T02:52:03;20.97;;;8.70;;
67053;SDS011;53960;51.826;5.850;2024-01-11T02:54:29;23.90;;;8.25;;
67053;SDS011;53960;51.826;5.850;2024-01-11T02:56:54;19.93;;;7.80;;
67053;SDS011;53960;51.826;5.850;2024-01-11T02:59:22;18.55;;;8.10;;
67053;SDS011;53960;51.826;5.850;2024-01-11T03:01:48;21.70;;;7.87;;
67053;SDS011;53960;51.826;5.850;2024-01-11T03:04:13;21.40;;;8.38;;
67053;SDS011;53960;51.826;5.850;2024-01-11T03:06:40;23.57;;;9.13;;
67053;SDS011;53960;51.826;5.850;2024-01-11T03:09:06;20.20;;;8.65;;
67053;SDS011;53960;51.826;5.850;2024-01-11T03:11:31;18.80;;;8.07;;
67053;SDS011;53960;51.826;5.850;2024-01-11T03:13:56;20.23;;;8.30;;
67053;SDS011;53960;51.826;5.850;2024-01-11T03:16:21;20.57;;;9.03;;
67053;SDS011;53960;51.826;5.850;2024-01-11T03:18:47;22.13;;;7.90;;
67053;SDS011;53960;51.826;5.850;2024-01-11T03:21:12;19.73;;;8.17;;
67053;SDS011;53960;51.826;5.850;2024-01-11T03:23:37;19.30;;;8.27;;
67053;SDS011;53960;51.826;5.850;2024-01-11T03:26:03;20.23;;;7.83;;
67053;SDS011;53960;51.826;5.850;2024-01-11T03:28:29;22.20;;;8.80;;
67053;SDS011;53960;51.826;5.850;2024-01-11T03:30:54;18.73;;;7.50;;
67053;SDS011;53960;51.826;5.850;2024-01-11T03:33:19;19.27;;;8.40;;
67053;SDS011;53960;51.826;5.850;2024-01-11T03:35:45;20.90;;;9.40;;
67053;SDS011;53960;51.826;5.850;2024-01-11T03:38:10;21.10;;;7.97;;
67053;SDS011;53960;51.826;5.850;2024-01-11T03:40:36;21.57;;;8.43;;
67053;SDS011;53960;51.826;5.850;2024-01-11T03:43:01;21.90;;;8.30;;
67053;SDS011;53960;51.826;5.850;2024-01-11T03:45:26;13.47;;;5.90;;
67053;SDS011;53960;51.826;5.850;2024-01-11T03:47:52;21.90;;;8.30;;
67053;SDS011;53960;51.826;5.850;2024-01-11T03:50:17;16.47;;;7.83;;
67053;SDS011;53960;51.826;5.850;2024-01-11T03:52:43;20.37;;;8.10;;
67053;SDS011;53960;51.826;5.850;2024-01-11T03:55:08;20.23;;;8.53;;
67053;SDS011;53960;51.826;5.850;2024-01-11T03:57:34;24.42;;;8.80;;
67053;SDS011;53960;51.826;5.850;2024-01-11T04:00:00;18.53;;;7.93;;
67053;SDS011;53960;51.826;5.850;2024-01-11T04:02:25;20.37;;;8.33;;
67053;SDS011;53960;51.826;5.850;2024-01-11T04:04:50;18.27;;;7.63;;
67053;SDS011;53960;51.826;5.850;2024-01-11T04:07:15;20.20;;;8.77;;
67053;SDS011;53960;51.826;5.850;2024-01-11T04:09:42;25.58;;;8.68;;
67053;SDS011;53960;51.826;5.850;2024-01-11T04:12:07;22.53;;;8.07;;
67053;SDS011;53960;51.826;5.850;2024-01-11T04:14:32;20.45;;;8.27;;
67053;SDS011;53960;51.826;5.850;2024-01-11T04:16:58;21.80;;;8.50;;
67053;SDS011;53960;51.826;5.850;2024-01-11T04:19:23;19.10;;;7.90;;
67053;SDS011;53960;51.826;5.850;2024-01-11T04:21:48;19.73;;;7.50;;
67053;SDS011;53960;51.826;5.850;2024-01-11T04:24:14;21.23;;;8.00;;
67053;SDS011;53960;51.826;5.850;2024-01-11T04:26:39;18.70;;;8.48;;
67053;SDS011;53960;51.826;5.850;2024-01-11T04:29:05;20.87;;;8.77;;
67053;SDS011;53960;51.826;5.850;2024-01-11T04:31:30;18.40;;;7.43;;
67053;SDS011;53960;51.826;5.850;2024-01-11T04:33:55;16.47;;;6.77;;
67053;SDS011;53960;51.826;5.850;2024-01-11T04:36:21;19.47;;;7.70;;
67053;SDS011;53960;51.826;5.850;2024-01-11T04:38:46;18.50;;;8.10;;
67053;SDS011;53960;51.826;5.850;2024-01-11T04:41:12;18.70;;;7.37;;
67053;SDS011;53960;51.826;5.850;2024-01-11T04:43:39;16.70;;;7.28;;
67053;SDS011;53960;51.826;5.850;2024-01-11T04:48:39;17.98;;;6.97;;
67053;SDS011;53960;51.826;5.850;2024-01-11T04:51:05;20.93;;;8.63;;
67053;SDS011;53960;51.826;5.850;2024-01-11T04:53:30;22.77;;;9.07;;
67053;SDS011;53960;51.826;5.850;2024-01-11T04:55:55;16.13;;;7.00;;
67053;SDS011;53960;51.826;5.850;2024-01-11T04:58:20;19.73;;;7.17;;
67053;SDS011;53960;51.826;5.850;2024-01-11T05:00:46;22.17;;;8.77;;
67053;SDS011;53960;51.826;5.850;2024-01-11T05:03:11;23.97;;;8.87;;
67053;SDS011;53960;51.826;5.850;2024-01-11T05:05:36;20.47;;;7.27;;
67053;SDS011;53960;51.826;5.850;2024-01-11T05:08:02;18.30;;;7.47;;
67053;SDS011;53960;51.826;5.850;2024-01-11T05:10:27;16.87;;;6.57;;
67053;SDS011;53960;51.826;5.850;2024-01-11T05:12:52;21.50;;;9.07;;
67053;SDS011;53960;51.826;5.850;2024-01-11T05:15:18;19.27;;;8.57;;
67053;SDS011;53960;51.826;5.850;2024-01-11T05:17:43;22.70;;;9.30;;
67053;SDS011;53960;51.826;5.850;2024-01-11T05:20:08;21.38;;;8.65;;
67053;SDS011;53960;51.826;5.850;2024-01-11T05:22:35;15.23;;;6.87;;
67053;SDS011;53960;51.826;5.850;2024-01-11T05:25:01;21.30;;;7.70;;
67053;SDS011;53960;51.826;5.850;2024-01-11T05:27:26;18.35;;;7.85;;
67053;SDS011;53960;51.826;5.850;2024-01-11T05:29:52;20.43;;;7.73;;
67053;SDS011;53960;51.826;5.850;2024-01-11T05:32:17;18.47;;;7.07;;
67053;SDS011;53960;51.826;5.850;2024-01-11T05:34:42;17.90;;;8.07;;
67053;SDS011;53960;51.826;5.850;2024-01-11T05:37:08;21.73;;;8.50;;
67053;SDS011;53960;51.826;5.850;2024-01-11T05:39:33;20.97;;;8.53;;
67053;SDS011;53960;51.826;5.850;2024-01-11T05:41:58;20.43;;;7.43;;
67053;SDS011;53960;51.826;5.850;2024-01-11T05:44:23;21.13;;;9.40;;
67053;SDS011;53960;51.826;5.850;2024-01-11T05:46:49;21.23;;;9.03;;
67053;SDS011;53960;51.826;5.850;2024-01-11T05:49:14;21.27;;;8.87;;
67053;SDS011;53960;51.826;5.850;2024-01-11T05:51:39;21.80;;;8.57;;
67053;SDS011;53960;51.826;5.850;2024-01-11T05:54:05;21.40;;;8.70;;
67053;SDS011;53960;51.826;5.850;2024-01-11T05:56:30;21.47;;;8.53;;
67053;SDS011;53960;51.826;5.850;2024-01-11T05:58:55;23.80;;;9.87;;
67053;SDS011;53960;51.826;5.850;2024-01-11T06:01:21;18.27;;;8.50;;
67053;SDS011;53960;51.826;5.850;2024-01-11T06:03:46;22.87;;;8.73;;
67053;SDS011;53960;51.826;5.850;2024-01-11T06:06:12;19.67;;;8.63;;
67053;SDS011;53960;51.826;5.850;2024-01-11T06:08:37;23.93;;;8.80;;
67053;SDS011;53960;51.826;5.850;2024-01-11T06:11:03;18.23;;;8.17;;
67053;SDS011;53960;51.826;5.850;2024-01-11T06:13:29;20.95;;;8.77;;
67053;SDS011;53960;51.826;5.850;2024-01-11T06:15:54;22.07;;;8.97;;
67053;SDS011;53960;51.826;5.850;2024-01-11T06:18:19;19.57;;;8.53;;
67053;SDS011;53960;51.826;5.850;2024-01-11T06:20:45;19.93;;;8.73;;
67053;SDS011;53960;51.826;5.850;2024-01-11T06:23:10;23.53;;;9.30;;
67053;SDS011;53960;51.826;5.850;2024-01-11T06:25:35;18.60;;;8.13;;
67053;SDS011;53960;51.826;5.850;2024-01-11T06:28:02;19.58;;;8.88;;
67053;SDS011;53960;51.826;5.850;2024-01-11T06:30:28;22.53;;;9.23;;
67053;SDS011;53960;51.826;5.850;2024-01-11T06:32:54;20.57;;;9.07;;
67053;SDS011;53960;51.826;5.850;2024-01-11T06:35:19;20.50;;;8.57;;
67053;SDS011;53960;51.826;5.850;2024-01-11T06:37:44;23.37;;;8.80;;
67053;SDS011;53960;51.826;5.850;2024-01-11T06:40:10;19.53;;;9.10;;
67053;SDS011;53960;51.826;5.850;2024-01-11T06:42:35;20.17;;;9.13;;
67053;SDS011;53960;51.826;5.850;2024-01-11T06:45:01;23.47;;;9.43;;
67053;SDS011;53960;51.826;5.850;2024-01-11T06:47:26;22.27;;;9.17;;
67053;SDS011;53960;51.826;5.850;2024-01-11T06:49:51;20.33;;;8.38;;
67053;SDS011;53960;51.826;5.850;2024-01-11T06:52:17;22.43;;;9.40;;
67053;SDS011;53960;51.826;5.850;2024-01-11T06:54:42;23.60;;;9.27;;
67053;SDS011;53960;51.826;5.850;2024-01-11T06:57:07;21.30;;;9.83;;
67053;SDS011;53960;51.826;5.850;2024-01-11T06:59:33;22.87;;;9.47;;
67053;SDS011;53960;51.826;5.850;2024-01-11T07:01:58;22.90;;;9.65;;
67053;SDS011;53960;51.826;5.850;2024-01-11T07:04:24;19.97;;;8.53;;
67053;SDS011;53960;51.826;5.850;2024-01-11T07:06:49;18.83;;;8.17;;
67053;SDS011;53960;51.826;5.850;2024-01-11T07:09:14;18.03;;;8.37;;
67053;SDS011;53960;51.826;5.850;2024-01-11T07:11:41;21.05;;;10.02;;
67053;SDS011;53960;51.826;5.850;2024-01-11T07:14:07;21.40;;;9.23;;
67053;SDS011;53960;51.826;5.850;2024-01-11T07:16:32;24.63;;;9.33;;
67053;SDS011;53960;51.826;5.850;2024-01-11T07:18:58;22.90;;;9.20;;
67053;SDS011;53960;51.826;5.850;2024-01-11T07:21:23;25.97;;;10.63;;
67053;SDS011;53960;51.826;5.850;2024-01-11T07:23:54;23.65;;;10.27;;
67053;SDS011;53960;51.826;5.850;2024-01-11T07:26:21;25.27;;;9.63;;
67053;SDS011;53960;51.826;5.850;2024-01-11T07:28:47;25.95;;;11.02;;
67053;SDS011;53960;51.826;5.850;2024-01-11T07:31:13;30.08;;;10.90;;
67053;SDS011;53960;51.826;5.850;2024-01-11T07:33:38;24.50;;;10.23;;
67053;SDS011;53960;51.826;5.850;2024-01-11T07:36:05;25.37;;;10.10;;
67053;SDS011;53960;51.826;5.850;2024-01-11T07:38:30;23.52;;;11.00;;
67053;SDS011;53960;51.826;5.850;2024-01-11T07:40:56;22.87;;;10.03;;
67053;SDS011;53960;51.826;5.850;2024-01-11T07:43:21;23.60;;;10.23;;
67053;SDS011;53960;51.826;5.850;2024-01-11T07:45:47;23.40;;;10.57;;
67053;SDS011;53960;51.826;5.850;2024-01-11T07:48:12;25.10;;;10.07;;
67053;SDS011;53960;51.826;5.850;2024-01-11T07:50:38;24.02;;;10.32;;
67053;SDS011;53960;51.826;5.850;2024-01-11T07:53:03;24.00;;;10.57;;
67053;SDS011;53960;51.826;5.850;2024-01-11T07:55:29;26.70;;;11.27;;
67053;SDS011;53960;51.826;5.850;2024-01-11T07:57:54;28.27;;;11.90;;
67053;SDS011;53960;51.826;5.850;2024-01-11T08:00:19;26.25;;;11.55;;
67053;SDS011;53960;51.826;5.850;2024-01-11T08:02:45;24.73;;;11.37;;
67053;SDS011;53960;51.826;5.850;2024-01-11T08:05:11;27.83;;;11.87;;
67053;SDS011;53960;51.826;5.850;2024-01-11T08:07:37;24.10;;;10.43;;
67053;SDS011;53960;51.826;5.850;2024-01-11T08:10:02;26.73;;;10.77;;
67053;SDS011;53960;51.826;5.850;2024-01-11T08:12:29;28.77;;;11.95;;
67053;SDS011;53960;51.826;5.850;2024-01-11T08:14:54;28.10;;;11.63;;
67053;SDS011;53960;51.826;5.850;2024-01-11T08:17:21;27.85;;;11.50;;
67053;SDS011;53960;51.826;5.850;2024-01-11T08:19:46;26.13;;;11.33;;
67053;SDS011;53960;51.826;5.850;2024-01-11T08:22:12;24.50;;;10.93;;
67053;SDS011;53960;51.826;5.850;2024-01-11T08:24:38;27.93;;;11.63;;
67053;SDS011;53960;51.826;5.850;2024-01-11T08:27:04;23.80;;;11.53;;
67053;SDS011;53960;51.826;5.850;2024-01-11T08:29:29;26.17;;;11.55;;
67053;SDS011;53960;51.826;5.850;2024-01-11T08:31:55;26.10;;;11.37;;
67053;SDS011;53960;51.826;5.850;2024-01-11T08:34:21;32.38;;;12.52;;
67053;SDS011;53960;51.826;5.850;2024-01-11T08:36:46;26.70;;;10.97;;
67053;SDS011;53960;51.826;5.850;2024-01-11T08:39:12;28.50;;;11.37;;
67053;SDS011;53960;51.826;5.850;2024-01-11T08:41:39;27.30;;;11.82;;
67053;SDS011;53960;51.826;5.850;2024-01-11T08:44:04;26.40;;;11.40;;
67053;SDS011;53960;51.826;5.850;2024-01-11T08:46:32;26.42;;;11.48;;
67053;SDS011;53960;51.826;5.850;2024-01-11T08:48:59;29.08;;;11.75;;
67053;SDS011;53960;51.826;5.850;2024-01-11T08:51:25;27.20;;;11.60;;
67053;SDS011;53960;51.826;5.850;2024-01-11T08:53:51;29.17;;;12.43;;
67053;SDS011;53960;51.826;5.850;2024-01-11T08:56:18;25.60;;;11.55;;
67053;SDS011;53960;51.826;5.850;2024-01-11T08:58:43;27.13;;;11.43;;
67053;SDS011;53960;51.826;5.850;2024-01-11T09:01:08;21.93;;;9.73;;
67053;SDS011;53960;51.826;5.850;2024-01-11T09:03:35;25.00;;;11.40;;
67053;SDS011;53960;51.826;5.850;2024-01-11T09:06:00;19.48;;;10.50;;
67053;SDS011;53960;51.826;5.850;2024-01-11T09:08:27;26.27;;;10.80;;
67053;SDS011;53960;51.826;5.850;2024-01-11T09:10:52;25.45;;;11.18;;
67053;SDS011;53960;51.826;5.850;2024-01-11T09:13:19;24.27;;;12.00;;
67053;SDS011;53960;51.826;5.850;2024-01-11T09:15:44;27.17;;;12.83;;
67053;SDS011;53960;51.826;5.850;2024-01-11T09:18:10;24.98;;;12.10;;
67053;SDS011;53960;51.826;5.850;2024-01-11T09:20:35;24.30;;;10.07;;
67053;SDS011;53960;51.826;5.850;2024-01-11T09:23:01;23.37;;;11.07;;
67053;SDS011;53960;51.826;5.850;2024-01-11T09:25:30;29.50;;;12.90;;
67053;SDS011;53960;51.826;5.850;2024-01-11T09:27:55;25.65;;;12.10;;
67053;SDS011;53960;51.826;5.850;2024-01-11T09:30:21;28.63;;;10.13;;
67053;SDS011;53960;51.826;5.850;2024-01-11T09:32:46;22.93;;;9.33;;
67053;SDS011;53960;51.826;5.850;2024-01-11T09:35:12;30.88;;;12.85;;
67053;SDS011;53960;51.826;5.850;2024-01-11T09:37:38;18.35;;;7.93;;
67053;SDS011;53960;51.826;5.850;2024-01-11T09:40:03;24.63;;;10.87;;
67053;SDS011;53960;51.826;5.850;2024-01-11T09:42:33;30.73;;;13.65;;
67053;SDS011;53960;51.826;5.850;2024-01-11T09:44:58;29.83;;;13.20;;
67053;SDS011;53960;51.826;5.850;2024-01-11T09:47:25;37.13;;;14.95;;
67053;SDS011;53960;51.826;5.850;2024-01-11T09:49:51;23.13;;;10.97;;
67053;SDS011;53960;51.826;5.850;2024-01-11T09:52:17;33.55;;;13.30;;
67053;SDS011;53960;51.826;5.850;2024-01-11T09:54:45;28.40;;;12.18;;
67053;SDS011;53960;51.826;5.850;2024-01-11T09:57:10;32.20;;;14.45;;
67053;SDS011;53960;51.826;5.850;2024-01-11T09:59:36;25.97;;;10.23;;
67053;SDS011;53960;51.826;5.850;2024-01-11T10:02:02;34.50;;;13.60;;
67053;SDS011;53960;51.826;5.850;2024-01-11T10:04:28;28.98;;;11.88;;
67053;SDS011;53960;51.826;5.850;2024-01-11T10:06:53;34.73;;;14.80;;
67053;SDS011;53960;51.826;5.850;2024-01-11T10:09:20;34.47;;;12.07;;
67053;SDS011;53960;51.826;5.850;2024-01-11T10:11:45;26.43;;;11.60;;
67053;SDS011;53960;51.826;5.850;2024-01-11T10:14:12;31.67;;;12.82;;
67053;SDS011;53960;51.826;5.850;2024-01-11T10:16:37;28.77;;;13.18;;
67053;SDS011;53960;51.826;5.850;2024-01-11T10:19:03;25.00;;;11.13;;
67053;SDS011;53960;51.826;5.850;2024-01-11T10:21:28;29.63;;;12.60;;
67053;SDS011;53960;51.826;5.850;2024-01-11T10:23:55;31.33;;;12.82;;
67053;SDS011;53960;51.826;5.850;2024-01-11T10:26:23;27.92;;;12.07;;
67053;SDS011;53960;51.826;5.850;2024-01-11T10:28:49;30.70;;;13.00;;
67053;SDS011;53960;51.826;5.850;2024-01-11T10:31:14;30.13;;;12.77;;
67053;SDS011;53960;51.826;5.850;2024-01-11T10:33:40;26.30;;;12.70;;
67053;SDS011;53960;51.826;5.850;2024-01-11T10:36:06;20.60;;;9.40;;
67053;SDS011;53960;51.826;5.850;2024-01-11T10:38:34;27.52;;;11.98;;
67053;SDS011;53960;51.826;5.850;2024-01-11T10:41:00;26.83;;;12.00;;
67053;SDS011;53960;51.826;5.850;2024-01-11T10:43:29;23.15;;;10.75;;
67053;SDS011;53960;51.826;5.850;2024-01-11T10:45:57;31.58;;;12.23;;
67053;SDS011;53960;51.826;5.850;2024-01-11T10:48:25;27.47;;;12.23;;
67053;SDS011;53960;51.826;5.850;2024-01-11T10:50:54;28.67;;;11.80;;
67053;SDS011;53960;51.826;5.850;2024-01-11T10:56:09;34.03;;;13.52;;
67053;SDS011;53960;51.826;5.850;2024-01-11T10:58:37;28.05;;;12.95;;
67053;SDS011;53960;51.826;5.850;2024-01-11T11:01:05;25.63;;;11.33;;
67053;SDS011;53960;51.826;5.850;2024-01-11T11:03:32;25.83;;;12.02;;
67053;SDS011;53960;51.826;5.850;2024-01-11T11:05:59;27.17;;;12.77;;
67053;SDS011;53960;51.826;5.850;2024-01-11T11:08:25;28.77;;;12.85;;
67053;SDS011;53960;51.826;5.850;2024-01-11T11:10:55;28.42;;;12.40;;
67053;SDS011;53960;51.826;5.850;2024-01-11T11:13:22;31.27;;;13.43;;
67053;SDS011;53960;51.826;5.850;2024-01-11T11:15:48;31.35;;;13.18;;
67053;SDS011;53960;51.826;5.850;2024-01-11T11:18:13;30.50;;;11.57;;
67053;SDS011;53960;51.826;5.850;2024-01-11T11:20:40;33.60;;;13.25;;
67053;SDS011;53960;51.826;5.850;2024-01-11T11:23:09;40.88;;;16.63;;
67053;SDS011;53960;51.826;5.850;2024-01-11T11:25:35;39.20;;;14.90;;
67053;SDS011;53960;51.826;5.850;2024-01-11T11:28:02;27.03;;;11.60;;
67053;SDS011;53960;51.826;5.850;2024-01-11T11:30:31;30.48;;;14.02;;
67053;SDS011;53960;51.826;5.850;2024-01-11T11:32:57;26.58;;;11.93;;
67053;SDS011;53960;51.826;5.850;2024-01-11T11:35:23;24.07;;;10.20;;
67053;SDS011;53960;51.826;5.850;2024-01-11T11:37:53;24.60;;;11.35;;
67053;SDS011;53960;51.826;5.850;2024-01-11T11:40:22;29.13;;;12.55;;
67053;SDS011;53960;51.826;5.850;2024-01-11T11:42:57;27.67;;;12.13;;
67053;SDS011;53960;51.826;5.850;2024-01-11T11:45:25;24.87;;;9.50;;
67053;SDS011;53960;51.826;5.850;2024-01-11T11:47:51;19.42;;;8.02;;
67053;SDS011;53960;51.826;5.850;2024-01-11T11:50:16;20.30;;;7.63;;
67053;SDS011;53960;51.826;5.850;2024-01-11T11:52:46;19.13;;;7.60;;
67053;SDS011;53960;51.826;5.850;2024-01-11T11:55:21;20.02;;;6.65;;
67053;SDS011;53960;51.826;5.850;2024-01-11T11:57:48;18.13;;;5.60;;
67053;SDS011;53960;51.826;5.850;2024-01-11T12:00:14;17.37;;;6.07;;
67053;SDS011;53960;51.826;5.850;2024-01-11T12:02:41;21.88;;;6.68;;
67053;SDS011;53960;51.826;5.850;2024-01-11T12:05:06;14.07;;;5.13;;
67053;SDS011;53960;51.826;5.850;2024-01-11T12:07:32;16.57;;;6.33;;
67053;SDS011;53960;51.826;5.850;2024-01-11T12:09:57;19.47;;;6.33;;
67053;SDS011;53960;51.826;5.850;2024-01-11T12:12:23;21.57;;;6.80;;
67053;SDS011;53960;51.826;5.850;2024-01-11T12:14:49;20.88;;;6.10;;
67053;SDS011;53960;51.826;5.850;2024-01-11T12:17:15;13.73;;;5.23;;
67053;SDS011;53960;51.826;5.850;2024-01-11T12:19:40;22.08;;;7.30;;
67053;SDS011;53960;51.826;5.850;2024-01-11T12:22:06;25.70;;;8.30;;
67053;SDS011;53960;51.826;5.850;2024-01-11T12:24:31;19.52;;;7.22;;
67053;SDS011;53960;51.826;5.850;2024-01-11T12:26:59;22.10;;;6.88;;
67053;SDS011;53960;51.826;5.850;2024-01-11T12:29:24;22.65;;;7.80;;
67053;SDS011;53960;51.826;5.850;2024-01-11T12:31:50;21.10;;;6.63;;
67053;SDS011;53960;51.826;5.850;2024-01-11T12:34:16;22.60;;;7.20;;
67053;SDS011;53960;51.826;5.850;2024-01-11T12:36:42;24.37;;;6.77;;
67053;SDS011;53960;51.826;5.850;2024-01-11T12:39:08;24.97;;;7.60;;
67053;SDS011;53960;51.826;5.850;2024-01-11T12:41:34;23.88;;;7.35;;
67053;SDS011;53960;51.826;5.850;2024-01-11T12:44:00;24.53;;;8.37;;
67053;SDS011;53960;51.826;5.850;2024-01-11T12:46:26;25.73;;;7.40;;
67053;SDS011;53960;51.826;5.850;2024-01-11T12:48:51;23.40;;;7.63;;
67053;SDS011;53960;51.826;5.850;2024-01-11T12:51:17;22.53;;;7.37;;
67053;SDS011;53960;51.826;5.850;2024-01-11T12:53:46;21.40;;;7.47;;
67053;SDS011;53960;51.826;5.850;2024-01-11T12:56:14;24.33;;;7.88;;
67053;SDS011;53960;51.826;5.850;2024-01-11T12:58:40;24.10;;;7.80;;
67053;SDS011;53960;51.826;5.850;2024-01-11T13:01:06;24.52;;;8.43;;
67053;SDS011;53960;51.826;5.850;2024-01-11T13:03:37;29.37;;;8.80;;
67053;SDS011;53960;51.826;5.850;2024-01-11T13:06:04;39.70;;;12.93;;
67053;SDS011;53960;51.826;5.850;2024-01-11T13:08:31;34.47;;;10.50;;
67053;SDS011;53960;51.826;5.850;2024-01-11T13:10:56;25.08;;;8.45;;
67053;SDS011;53960;51.826;5.850;2024-01-11T13:13:22;25.70;;;8.60;;
67053;SDS011;53960;51.826;5.850;2024-01-11T13:15:47;30.03;;;9.20;;
67053;SDS011;53960;51.826;5.850;2024-01-11T13:18:13;27.70;;;8.13;;
67053;SDS011;53960;51.826;5.850;2024-01-11T13:20:38;26.88;;;8.70;;
67053;SDS011;53960;51.826;5.850;2024-01-11T13:23:14;26.17;;;9.17;;
67053;SDS011;53960;51.826;5.850;2024-01-11T13:25:41;30.37;;;9.03;;
67053;SDS011;53960;51.826;5.850;2024-01-11T13:28:07;23.95;;;8.60;;
67053;SDS011;53960;51.826;5.850;2024-01-11T13:30:32;25.38;;;8.85;;
67053;SDS011;53960;51.826;5.850;2024-01-11T13:32:58;27.87;;;9.20;;
67053;SDS011;53960;51.826;5.850;2024-01-11T13:35:23;26.50;;;8.37;;
67053;SDS011;53960;51.826;5.850;2024-01-11T13:37:49;26.27;;;8.60;;
67053;SDS011;53960;51.826;5.850;2024-01-11T13:40:14;28.38;;;8.50;;
67053;SDS011;53960;51.826;5.850;2024-01-11T13:42:39;24.90;;;8.17;;
67053;SDS011;53960;51.826;5.850;2024-01-11T13:45:05;25.23;;;8.57;;
67053;SDS011;53960;51.826;5.850;2024-01-11T13:47:34;27.27;;;8.48;;
67053;SDS011;53960;51.826;5.850;2024-01-11T13:49:59;25.73;;;7.93;;
67053;SDS011;53960;51.826;5.850;2024-01-11T13:52:25;25.00;;;8.63;;
67053;SDS011;53960;51.826;5.850;2024-01-11T13:54:50;25.67;;;9.00;;
67053;SDS011;53960;51.826;5.850;2024-01-11T13:57:15;26.53;;;8.70;;
67053;SDS011;53960;51.826;5.850;2024-01-11T13:59:41;24.20;;;8.05;;
67053;SDS011;53960;51.826;5.850;2024-01-11T14:02:07;28.63;;;8.50;;
67053;SDS011;53960;51.826;5.850;2024-01-11T14:04:32;26.07;;;8.03;;
67053;SDS011;53960;51.826;5.850;2024-01-11T14:06:58;27.80;;;8.07;;
67053;SDS011;53960;51.826;5.850;2024-01-11T14:09:23;24.43;;;8.27;;
67053;SDS011;53960;51.826;5.850;2024-01-11T14:11:49;21.80;;;7.43;;
67053;SDS011;53960;51.826;5.850;2024-01-11T14:14:14;23.20;;;7.97;;
67053;SDS011;53960;51.826;5.850;2024-01-11T14:16:39;27.65;;;8.40;;
67053;SDS011;53960;51.826;5.850;2024-01-11T14:19:05;24.40;;;8.50;;
67053;SDS011;53960;51.826;5.850;2024-01-11T14:21:30;24.27;;;7.37;;
67053;SDS011;53960;51.826;5.850;2024-01-11T14:23:56;24.83;;;9.30;;
67053;SDS011;53960;51.826;5.850;2024-01-11T14:26:21;24.77;;;8.23;;
67053;SDS011;53960;51.826;5.850;2024-01-11T14:28:47;24.45;;;8.27;;